sensor_id;sensor_type;location;lat;lon;timestamp;temperature;humidity
21267;DHT22;10791;53.108;18.326;2022-09-16T00:01:30;11.10;99.90
21267;DHT22;10791;53.108;18.326;2022-09-16T00:06:33;11.00;99.90
21267;DHT22;10791;53.108;18.326;2022-09-16T00:11:37;11.00;99.90
21267;DHT22;10791;53.108;18.326;2022-09-16T00:16:40;10.90;99.90
21267;DHT22;10791;53.108;18.326;2022-09-16T00:21:46;10.90;99.90
21267;DHT22;10791;53.108;18.326;2022-09-16T00:26:49;10.90;99.90
21267;DHT22;10791;53.108;18.326;2022-09-16T00:31:53;10.80;99.90
21267;DHT22;10791;53.108;18.326;2022-09-16T00:36:56;10.80;99.90
21267;DHT22;10791;53.108;18.326;2022-09-16T00:42:01;10.70;99.90
21267;DHT22;10791;53.108;18.326;2022-09-16T00:47:06;10.70;99.90
21267;DHT22;10791;53.108;18.326;2022-09-16T00:52:09;10.60;99.90
21267;DHT22;10791;53.108;18.326;2022-09-16T00:57:13;10.60;99.90
21267;DHT22;10791;53.108;18.326;2022-09-16T01:02:19;10.60;99.90
21267;DHT22;10791;53.108;18.326;2022-09-16T01:07:48;10.60;99.90
21267;DHT22;10791;53.108;18.326;2022-09-16T01:13:00;10.60;99.90
21267;DHT22;10791;53.108;18.326;2022-09-16T01:23:57;10.60;99.90
21267;DHT22;10791;53.108;18.326;2022-09-16T01:29:20;10.50;99.90
21267;DHT22;10791;53.108;18.326;2022-09-16T01:45:26;10.40;99.90
21267;DHT22;10791;53.108;18.326;2022-09-16T01:50:46;10.40;99.90
21267;DHT22;10791;53.108;18.326;2022-09-16T02:01:20;10.30;99.90
21267;DHT22;10791;53.108;18.326;2022-09-16T02:06:27;10.30;99.90
21267;DHT22;10791;53.108;18.326;2022-09-16T02:11:33;10.30;99.90
21267;DHT22;10791;53.108;18.326;2022-09-16T02:17:05;10.30;99.90
21267;DHT22;10791;53.108;18.326;2022-09-16T02:22:14;10.20;99.90
21267;DHT22;10791;53.108;18.326;2022-09-16T02:27:20;10.20;99.90
21267;DHT22;10791;53.108;18.326;2022-09-16T02:32:26;10.20;99.90
21267;DHT22;10791;53.108;18.326;2022-09-16T02:42:49;10.10;99.90
21267;DHT22;10791;53.108;18.326;2022-09-16T02:53:32;10.00;99.90
21267;DHT22;10791;53.108;18.326;2022-09-16T02:58:40;9.90;99.90
21267;DHT22;10791;53.108;18.326;2022-09-16T03:03:44;9.90;99.90
21267;DHT22;10791;53.108;18.326;2022-09-16T03:08:49;9.90;99.90
21267;DHT22;10791;53.108;18.326;2022-09-16T03:14:06;9.90;99.90
21267;DHT22;10791;53.108;18.326;2022-09-16T03:19:24;9.80;99.90
21267;DHT22;10791;53.108;18.326;2022-09-16T03:25:02;9.80;99.90
21267;DHT22;10791;53.108;18.326;2022-09-16T03:30:10;9.70;99.90
21267;DHT22;10791;53.108;18.326;2022-09-16T03:35:22;9.70;99.90
21267;DHT22;10791;53.108;18.326;2022-09-16T03:40:29;9.70;99.90
21267;DHT22;10791;53.108;18.326;2022-09-16T03:45:34;9.60;99.90
21267;DHT22;10791;53.108;18.326;2022-09-16T03:50:37;9.60;99.90
21267;DHT22;10791;53.108;18.326;2022-09-16T03:55:41;9.50;99.90
21267;DHT22;10791;53.108;18.326;2022-09-16T04:00:48;9.50;99.90
21267;DHT22;10791;53.108;18.326;2022-09-16T04:05:53;9.50;99.90
21267;DHT22;10791;53.108;18.326;2022-09-16T04:11:02;9.40;99.90
21267;DHT22;10791;53.108;18.326;2022-09-16T04:16:07;9.40;99.90
21267;DHT22;10791;53.108;18.326;2022-09-16T04:21:11;9.40;99.90
21267;DHT22;10791;53.108;18.326;2022-09-16T04:26:15;9.40;99.90
21267;DHT22;10791;53.108;18.326;2022-09-16T04:31:19;9.40;99.90
21267;DHT22;10791;53.108;18.326;2022-09-16T04:36:22;9.40;99.90
21267;DHT22;10791;53.108;18.326;2022-09-16T04:41:27;9.30;99.90
21267;DHT22;10791;53.108;18.326;2022-09-16T04:46:33;9.40;99.90
21267;DHT22;10791;53.108;18.326;2022-09-16T04:51:37;9.40;99.90
21267;DHT22;10791;53.108;18.326;2022-09-16T04:56:40;9.40;99.90
21267;DHT22;10791;53.108;18.326;2022-09-16T05:01:44;9.50;99.90
21267;DHT22;10791;53.108;18.326;2022-09-16T05:06:49;9.50;99.90
21267;DHT22;10791;53.108;18.326;2022-09-16T05:11:53;9.60;99.90
21267;DHT22;10791;53.108;18.326;2022-09-16T05:16:56;9.60;99.90
21267;DHT22;10791;53.108;18.326;2022-09-16T05:22:00;9.60;99.90
21267;DHT22;10791;53.108;18.326;2022-09-16T05:27:08;9.60;99.90
21267;DHT22;10791;53.108;18.326;2022-09-16T05:32:12;9.70;99.90
21267;DHT22;10791;53.108;18.326;2022-09-16T05:37:16;9.80;99.90
21267;DHT22;10791;53.108;18.326;2022-09-16T05:42:20;9.80;99.90
21267;DHT22;10791;53.108;18.326;2022-09-16T05:47:23;9.90;99.90
21267;DHT22;10791;53.108;18.326;2022-09-16T05:52:26;10.10;99.90
21267;DHT22;10791;53.108;18.326;2022-09-16T05:57:30;10.20;99.90
21267;DHT22;10791;53.108;18.326;2022-09-16T06:02:34;10.20;99.90
21267;DHT22;10791;53.108;18.326;2022-09-16T06:07:38;10.30;99.90
21267;DHT22;10791;53.108;18.326;2022-09-16T06:12:42;10.50;99.90
21267;DHT22;10791;53.108;18.326;2022-09-16T06:17:46;10.60;99.90
21267;DHT22;10791;53.108;18.326;2022-09-16T06:22:53;10.70;99.90
21267;DHT22;10791;53.108;18.326;2022-09-16T06:27:58;10.90;99.90
21267;DHT22;10791;53.108;18.326;2022-09-16T06:33:02;11.10;99.90
21267;DHT22;10791;53.108;18.326;2022-09-16T06:38:06;11.20;99.90
21267;DHT22;10791;53.108;18.326;2022-09-16T06:43:10;11.40;99.90
21267;DHT22;10791;53.108;18.326;2022-09-16T06:48:26;11.60;99.90
21267;DHT22;10791;53.108;18.326;2022-09-16T06:53:31;11.70;99.90
21267;DHT22;10791;53.108;18.326;2022-09-16T06:58:38;11.80;99.90
21267;DHT22;10791;53.108;18.326;2022-09-16T07:03:46;12.00;99.90
21267;DHT22;10791;53.108;18.326;2022-09-16T07:08:53;12.10;99.90
21267;DHT22;10791;53.108;18.326;2022-09-16T07:13:58;12.20;99.90
21267;DHT22;10791;53.108;18.326;2022-09-16T07:19:02;12.30;99.90
21267;DHT22;10791;53.108;18.326;2022-09-16T07:24:11;12.50;99.90
21267;DHT22;10791;53.108;18.326;2022-09-16T07:29:21;12.80;99.90
21267;DHT22;10791;53.108;18.326;2022-09-16T07:34:29;12.80;99.90
21267;DHT22;10791;53.108;18.326;2022-09-16T07:39:33;12.90;99.90
21267;DHT22;10791;53.108;18.326;2022-09-16T07:44:41;13.00;99.90
21267;DHT22;10791;53.108;18.326;2022-09-16T07:49:48;13.10;99.90
21267;DHT22;10791;53.108;18.326;2022-09-16T07:54:58;13.20;99.90
21267;DHT22;10791;53.108;18.326;2022-09-16T08:00:05;13.60;99.90
21267;DHT22;10791;53.108;18.326;2022-09-16T08:05:10;13.80;99.90
21267;DHT22;10791;53.108;18.326;2022-09-16T08:10:17;14.10;99.90
21267;DHT22;10791;53.108;18.326;2022-09-16T08:15:28;14.00;99.90
21267;DHT22;10791;53.108;18.326;2022-09-16T08:20:35;13.90;99.90
21267;DHT22;10791;53.108;18.326;2022-09-16T08:25:41;13.80;99.90
21267;DHT22;10791;53.108;18.326;2022-09-16T08:30:45;13.90;99.90
21267;DHT22;10791;53.108;18.326;2022-09-16T08:46:55;13.60;99.90
21267;DHT22;10791;53.108;18.326;2022-09-16T08:52:08;13.60;99.90
21267;DHT22;10791;53.108;18.326;2022-09-16T08:57:19;13.70;99.90
21267;DHT22;10791;53.108;18.326;2022-09-16T09:19:29;14.10;99.90
21267;DHT22;10791;53.108;18.326;2022-09-16T09:30:24;14.10;99.90
21267;DHT22;10791;53.108;18.326;2022-09-16T09:35:54;13.90;99.90
21267;DHT22;10791;53.108;18.326;2022-09-16T09:41:11;13.90;99.90
21267;DHT22;10791;53.108;18.326;2022-09-16T09:46:45;14.00;99.90
21267;DHT22;10791;53.108;18.326;2022-09-16T09:52:25;14.10;99.90
21267;DHT22;10791;53.108;18.326;2022-09-16T10:03:13;15.30;99.90
21267;DHT22;10791;53.108;18.326;2022-09-16T10:13:33;15.50;99.90
21267;DHT22;10791;53.108;18.326;2022-09-16T10:19:16;15.20;99.90
21267;DHT22;10791;53.108;18.326;2022-09-16T10:24:37;15.00;99.90
21267;DHT22;10791;53.108;18.326;2022-09-16T10:29:43;15.10;99.90
21267;DHT22;10791;53.108;18.326;2022-09-16T10:34:53;15.70;99.00
21267;DHT22;10791;53.108;18.326;2022-09-16T10:40:03;16.20;97.50
21267;DHT22;10791;53.108;18.326;2022-09-16T10:45:29;16.20;96.20
21267;DHT22;10791;53.108;18.326;2022-09-16T10:50:53;16.20;95.70
21267;DHT22;10791;53.108;18.326;2022-09-16T10:56:01;15.90;95.30
21267;DHT22;10791;53.108;18.326;2022-09-16T11:01:08;15.70;95.70
21267;DHT22;10791;53.108;18.326;2022-09-16T11:06:29;16.00;95.50
21267;DHT22;10791;53.108;18.326;2022-09-16T11:22:38;17.40;91.40
21267;DHT22;10791;53.108;18.326;2022-09-16T12:00:31;16.70;91.20
21267;DHT22;10791;53.108;18.326;2022-09-16T12:05:45;16.90;90.30
21267;DHT22;10791;53.108;18.326;2022-09-16T12:11:22;16.70;87.80
21267;DHT22;10791;53.108;18.326;2022-09-16T12:16:36;16.90;90.30
21267;DHT22;10791;53.108;18.326;2022-09-16T12:21:52;17.20;90.20
21267;DHT22;10791;53.108;18.326;2022-09-16T12:27:43;17.60;90.40
21267;DHT22;10791;53.108;18.326;2022-09-16T12:38:17;18.10;83.80
21267;DHT22;10791;53.108;18.326;2022-09-16T12:49:24;17.70;81.60
21267;DHT22;10791;53.108;18.326;2022-09-16T12:55:04;17.30;82.20
21267;DHT22;10791;53.108;18.326;2022-09-16T13:00:34;17.20;86.10
21267;DHT22;10791;53.108;18.326;2022-09-16T13:05:45;17.30;83.40
21267;DHT22;10791;53.108;18.326;2022-09-16T13:11:06;16.90;84.90
21267;DHT22;10791;53.108;18.326;2022-09-16T13:16:35;16.80;84.60
21267;DHT22;10791;53.108;18.326;2022-09-16T13:21:42;16.90;87.10
21267;DHT22;10791;53.108;18.326;2022-09-16T13:26:52;17.20;86.90
21267;DHT22;10791;53.108;18.326;2022-09-16T13:32:02;17.50;85.40
21267;DHT22;10791;53.108;18.326;2022-09-16T13:37:15;17.90;82.80
21267;DHT22;10791;53.108;18.326;2022-09-16T13:42:22;18.10;77.90
21267;DHT22;10791;53.108;18.326;2022-09-16T13:47:31;18.20;78.90
21267;DHT22;10791;53.108;18.326;2022-09-16T13:52:42;18.50;71.70
21267;DHT22;10791;53.108;18.326;2022-09-16T14:09:51;18.50;73.60
21267;DHT22;10791;53.108;18.326;2022-09-16T14:14:24;18.30;68.40
21267;DHT22;10791;53.108;18.326;2022-09-16T14:19:52;18.00;68.50
21267;DHT22;10791;53.108;18.326;2022-09-16T14:25:32;18.10;69.70
21267;DHT22;10791;53.108;18.326;2022-09-16T14:35:57;18.20;70.50
21267;DHT22;10791;53.108;18.326;2022-09-16T14:41:09;17.90;72.00
21267;DHT22;10791;53.108;18.326;2022-09-16T14:46:17;17.60;73.90
21267;DHT22;10791;53.108;18.326;2022-09-16T14:51:23;17.40;77.10
21267;DHT22;10791;53.108;18.326;2022-09-16T14:56:29;17.90;77.90
21267;DHT22;10791;53.108;18.326;2022-09-16T15:01:37;18.20;76.10
21267;DHT22;10791;53.108;18.326;2022-09-16T15:06:47;18.20;75.80
21267;DHT22;10791;53.108;18.326;2022-09-16T15:11:58;18.10;73.70
21267;DHT22;10791;53.108;18.326;2022-09-16T15:17:03;17.90;71.20
21267;DHT22;10791;53.108;18.326;2022-09-16T15:22:08;17.70;71.50
21267;DHT22;10791;53.108;18.326;2022-09-16T15:27:26;17.10;74.20
21267;DHT22;10791;53.108;18.326;2022-09-16T15:32:30;16.90;76.50
21267;DHT22;10791;53.108;18.326;2022-09-16T15:37:34;17.10;77.00
21267;DHT22;10791;53.108;18.326;2022-09-16T15:42:40;17.10;76.60
21267;DHT22;10791;53.108;18.326;2022-09-16T15:47:55;17.00;75.60
21267;DHT22;10791;53.108;18.326;2022-09-16T15:53:11;16.70;78.00
21267;DHT22;10791;53.108;18.326;2022-09-16T16:03:49;16.60;78.80
21267;DHT22;10791;53.108;18.326;2022-09-16T16:08:55;16.60;78.20
21267;DHT22;10791;53.108;18.326;2022-09-16T16:14:00;16.50;79.30
21267;DHT22;10791;53.108;18.326;2022-09-16T16:19:09;16.30;80.50
21267;DHT22;10791;53.108;18.326;2022-09-16T16:24:14;16.00;82.80
21267;DHT22;10791;53.108;18.326;2022-09-16T16:29:18;15.90;84.30
21267;DHT22;10791;53.108;18.326;2022-09-16T16:34:22;15.60;83.60
21267;DHT22;10791;53.108;18.326;2022-09-16T16:39:25;15.40;85.00
21267;DHT22;10791;53.108;18.326;2022-09-16T16:44:29;15.20;85.50
21267;DHT22;10791;53.108;18.326;2022-09-16T16:49:33;15.00;87.10
21267;DHT22;10791;53.108;18.326;2022-09-16T16:54:38;14.90;88.30
21267;DHT22;10791;53.108;18.326;2022-09-16T16:59:43;14.80;88.80
21267;DHT22;10791;53.108;18.326;2022-09-16T17:04:47;14.70;90.30
21267;DHT22;10791;53.108;18.326;2022-09-16T17:09:50;14.50;90.80
21267;DHT22;10791;53.108;18.326;2022-09-16T17:14:57;14.40;91.60
21267;DHT22;10791;53.108;18.326;2022-09-16T17:20:01;14.20;92.10
21267;DHT22;10791;53.108;18.326;2022-09-16T17:25:06;14.00;92.80
21267;DHT22;10791;53.108;18.326;2022-09-16T17:30:14;13.90;94.00
21267;DHT22;10791;53.108;18.326;2022-09-16T17:35:19;13.70;94.40
21267;DHT22;10791;53.108;18.326;2022-09-16T17:40:24;13.60;95.20
21267;DHT22;10791;53.108;18.326;2022-09-16T17:45:31;13.50;95.80
21267;DHT22;10791;53.108;18.326;2022-09-16T17:50:36;13.40;96.30
21267;DHT22;10791;53.108;18.326;2022-09-16T17:55:43;13.40;97.00
21267;DHT22;10791;53.108;18.326;2022-09-16T18:00:46;13.30;97.40
21267;DHT22;10791;53.108;18.326;2022-09-16T18:05:51;13.30;97.90
21267;DHT22;10791;53.108;18.326;2022-09-16T18:10:55;13.30;98.60
21267;DHT22;10791;53.108;18.326;2022-09-16T18:16:13;13.40;98.90
21267;DHT22;10791;53.108;18.326;2022-09-16T18:21:18;13.40;99.00
21267;DHT22;10791;53.108;18.326;2022-09-16T18:26:23;13.30;99.40
21267;DHT22;10791;53.108;18.326;2022-09-16T18:31:28;13.30;99.90
21267;DHT22;10791;53.108;18.326;2022-09-16T18:36:34;13.30;99.90
21267;DHT22;10791;53.108;18.326;2022-09-16T18:41:42;13.20;99.90
21267;DHT22;10791;53.108;18.326;2022-09-16T18:46:52;13.10;99.90
21267;DHT22;10791;53.108;18.326;2022-09-16T18:51:58;13.10;99.90
21267;DHT22;10791;53.108;18.326;2022-09-16T18:57:02;13.00;99.90
21267;DHT22;10791;53.108;18.326;2022-09-16T19:02:09;12.90;99.90
21267;DHT22;10791;53.108;18.326;2022-09-16T19:07:13;12.90;99.90
21267;DHT22;10791;53.108;18.326;2022-09-16T19:12:20;12.80;99.90
21267;DHT22;10791;53.108;18.326;2022-09-16T19:17:24;12.80;99.90
21267;DHT22;10791;53.108;18.326;2022-09-16T19:22:28;12.80;99.90
21267;DHT22;10791;53.108;18.326;2022-09-16T19:27:33;12.80;99.90
21267;DHT22;10791;53.108;18.326;2022-09-16T19:32:37;12.80;99.90
21267;DHT22;10791;53.108;18.326;2022-09-16T19:37:42;12.70;99.90
21267;DHT22;10791;53.108;18.326;2022-09-16T19:42:46;12.70;99.90
21267;DHT22;10791;53.108;18.326;2022-09-16T19:47:50;12.50;99.90
21267;DHT22;10791;53.108;18.326;2022-09-16T19:52:53;12.50;99.90
21267;DHT22;10791;53.108;18.326;2022-09-16T19:57:57;12.40;99.90
21267;DHT22;10791;53.108;18.326;2022-09-16T20:03:01;12.20;99.90
21267;DHT22;10791;53.108;18.326;2022-09-16T20:08:06;12.10;99.90
21267;DHT22;10791;53.108;18.326;2022-09-16T20:13:12;12.10;99.90
21267;DHT22;10791;53.108;18.326;2022-09-16T20:18:16;12.00;99.90
21267;DHT22;10791;53.108;18.326;2022-09-16T20:23:21;12.00;99.90
21267;DHT22;10791;53.108;18.326;2022-09-16T20:28:31;11.90;99.90
21267;DHT22;10791;53.108;18.326;2022-09-16T20:33:35;11.80;99.90
21267;DHT22;10791;53.108;18.326;2022-09-16T20:38:39;11.70;99.90
21267;DHT22;10791;53.108;18.326;2022-09-16T20:43:44;11.60;99.90
21267;DHT22;10791;53.108;18.326;2022-09-16T20:48:50;11.50;99.90
21267;DHT22;10791;53.108;18.326;2022-09-16T20:54:00;11.40;99.90
21267;DHT22;10791;53.108;18.326;2022-09-16T20:59:11;11.30;99.90
21267;DHT22;10791;53.108;18.326;2022-09-16T21:04:17;11.20;99.90
21267;DHT22;10791;53.108;18.326;2022-09-16T21:09:21;11.10;99.90
21267;DHT22;10791;53.108;18.326;2022-09-16T21:14:24;11.10;99.90
21267;DHT22;10791;53.108;18.326;2022-09-16T21:19:28;11.00;99.90
21267;DHT22;10791;53.108;18.326;2022-09-16T21:24:32;11.00;99.90
21267;DHT22;10791;53.108;18.326;2022-09-16T21:29:36;11.00;99.90
21267;DHT22;10791;53.108;18.326;2022-09-16T21:34:39;11.00;99.90
21267;DHT22;10791;53.108;18.326;2022-09-16T21:39:44;10.90;99.90
21267;DHT22;10791;53.108;18.326;2022-09-16T21:44:47;10.90;99.90
21267;DHT22;10791;53.108;18.326;2022-09-16T21:49:55;10.90;99.90
21267;DHT22;10791;53.108;18.326;2022-09-16T21:55:15;10.80;99.90
21267;DHT22;10791;53.108;18.326;2022-09-16T22:00:18;10.80;99.90
21267;DHT22;10791;53.108;18.326;2022-09-16T22:05:22;10.80;99.90
21267;DHT22;10791;53.108;18.326;2022-09-16T22:10:27;11.00;99.90
21267;DHT22;10791;53.108;18.326;2022-09-16T22:15:30;11.00;99.90
21267;DHT22;10791;53.108;18.326;2022-09-16T22:20:34;11.00;99.90
21267;DHT22;10791;53.108;18.326;2022-09-16T22:25:38;11.00;99.90
21267;DHT22;10791;53.108;18.326;2022-09-16T22:30:41;10.90;99.90
21267;DHT22;10791;53.108;18.326;2022-09-16T22:35:46;10.90;99.90
21267;DHT22;10791;53.108;18.326;2022-09-16T22:40:49;10.90;99.90
21267;DHT22;10791;53.108;18.326;2022-09-16T22:45:53;10.90;99.90
21267;DHT22;10791;53.108;18.326;2022-09-16T22:50:58;11.00;99.90
21267;DHT22;10791;53.108;18.326;2022-09-16T22:56:04;10.90;99.90
21267;DHT22;10791;53.108;18.326;2022-09-16T23:01:10;10.90;99.90
21267;DHT22;10791;53.108;18.326;2022-09-16T23:06:14;11.00;99.90
21267;DHT22;10791;53.108;18.326;2022-09-16T23:11:21;11.00;99.90
21267;DHT22;10791;53.108;18.326;2022-09-16T23:16:31;11.10;99.90
21267;DHT22;10791;53.108;18.326;2022-09-16T23:21:36;11.20;99.90
21267;DHT22;10791;53.108;18.326;2022-09-16T23:26:43;11.30;99.90
21267;DHT22;10791;53.108;18.326;2022-09-16T23:31:49;11.40;99.90
21267;DHT22;10791;53.108;18.326;2022-09-16T23:36:55;11.40;99.90
21267;DHT22;10791;53.108;18.326;2022-09-16T23:41:59;11.50;99.90
21267;DHT22;10791;53.108;18.326;2022-09-16T23:47:03;11.40;99.90
21267;DHT22;10791;53.108;18.326;2022-09-16T23:52:06;11.40;99.90
21267;DHT22;10791;53.108;18.326;2022-09-16T23:57:10;11.30;99.90
